createdAt,value
2023-04-27T00:01:27.126Z,99087.94
2023-04-27T00:03:55.101Z,99087.38
2023-04-27T00:06:23.378Z,99087.84
2023-04-27T00:08:51.411Z,99091.73
2023-04-27T00:11:19.315Z,99092.13
2023-04-27T00:13:47.152Z,99091.77
2023-04-27T00:16:14.998Z,99091.11
2023-04-27T00:18:42.703Z,99096.08
2023-04-27T00:21:10.619Z,99095.17
2023-04-27T00:23:38.274Z,99094.80
2023-04-27T00:26:06.052Z,99095.66
2023-04-27T00:28:33.672Z,99097.14
2023-04-27T00:31:03.620Z,99094.58
2023-04-27T00:33:31.983Z,99097.25
2023-04-27T00:36:01.662Z,99101.75
2023-04-27T00:38:30.380Z,99104.52
2023-04-27T00:41:03.474Z,99106.10
2023-04-27T00:43:31.358Z,99107.64
2023-04-27T00:46:00.226Z,99109.41
2023-04-27T00:48:28.180Z,99106.77
2023-04-27T00:50:56.045Z,99108.94
2023-04-27T00:53:23.786Z,99106.13
2023-04-27T00:55:51.390Z,99106.02
2023-04-27T00:58:19.051Z,99109.05
2023-04-27T01:00:46.678Z,99108.86
2023-04-27T01:03:15.623Z,99109.63
2023-04-27T01:05:44.838Z,99107.77
2023-04-27T01:08:12.447Z,99112.28
2023-04-27T01:10:41.236Z,99108.40
2023-04-27T01:13:11.284Z,99108.96
2023-04-27T01:15:38.919Z,99109.09
2023-04-27T01:18:10.614Z,99110.25
2023-04-27T01:20:38.952Z,99108.54
2023-04-27T01:23:06.852Z,99109.53
2023-04-27T01:25:34.464Z,99106.10
2023-04-27T01:28:03.447Z,99107.77
2023-04-27T01:30:31.078Z,99110.44
2023-04-27T01:32:59.828Z,99110.48
2023-04-27T01:35:28.483Z,99109.89
2023-04-27T01:38:01.424Z,99108.08
2023-04-27T01:40:29.464Z,99109.86
2023-04-27T01:42:57.269Z,99107.59
2023-04-27T01:45:25.138Z,99106.99
2023-04-27T01:47:53.790Z,99108.11
2023-04-27T01:50:22.002Z,99112.27
2023-04-27T01:52:49.666Z,99114.75
2023-04-27T01:55:17.309Z,99118.72
2023-04-27T01:57:46.214Z,99115.91
2023-04-27T02:00:14.781Z,99118.83
2023-04-27T02:02:51.177Z,99118.23
2023-04-27T02:05:19.970Z,99117.60
2023-04-27T02:07:49.660Z,99118.13
2023-04-27T02:10:17.517Z,99120.36
2023-04-27T02:12:46.206Z,99116.67
2023-04-27T02:15:14.135Z,99116.90
2023-04-27T02:17:41.781Z,99113.86
2023-04-27T02:20:10.992Z,99115.76
2023-04-27T02:22:45.090Z,99116.28
2023-04-27T02:25:13.091Z,99115.70
2023-04-27T02:27:41.494Z,99113.77
2023-04-27T02:30:11.709Z,99116.52
2023-04-27T02:32:41.128Z,99114.92
2023-04-27T02:35:09.770Z,99116.70
2023-04-27T02:37:37.396Z,99117.57
2023-04-27T02:40:07.930Z,99113.77
2023-04-27T02:42:35.800Z,99115.17
2023-04-27T02:45:06.785Z,99115.80
2023-04-27T02:47:34.768Z,99119.74
2023-04-27T02:50:02.804Z,99118.66
2023-04-27T02:52:34.381Z,99120.80
2023-04-27T02:55:02.024Z,99122.70
2023-04-27T02:57:29.785Z,99120.84
2023-04-27T02:59:57.445Z,99120.87
2023-04-27T03:02:25.339Z,99115.98
2023-04-27T03:04:57.556Z,99117.52
2023-04-27T03:07:25.254Z,99124.65
2023-04-27T03:09:52.866Z,99128.40
2023-04-27T03:12:20.547Z,99128.23
2023-04-27T03:14:48.388Z,99133.70
2023-04-27T03:17:16.030Z,99133.71
2023-04-27T03:19:43.615Z,99137.48
2023-04-27T03:22:11.210Z,99137.02
2023-04-27T03:24:38.811Z,99142.30
2023-04-27T03:27:06.443Z,99140.84
2023-04-27T03:29:34.397Z,99142.70
2023-04-27T03:32:04.168Z,99138.41
2023-04-27T03:34:32.112Z,99141.46
2023-04-27T03:36:59.746Z,99142.55
2023-04-27T03:39:27.566Z,99143.05
2023-04-27T03:41:55.170Z,99144.65
2023-04-27T03:44:23.032Z,99149.63
2023-04-27T03:46:51.326Z,99146.36
2023-04-27T03:49:19.036Z,99152.02
2023-04-27T03:51:46.732Z,99152.48
2023-04-27T03:54:16.374Z,99152.16
2023-04-27T03:56:47.829Z,99154.73
2023-04-27T03:59:16.506Z,99154.27
2023-04-27T04:01:50.788Z,99156.38
2023-04-27T04:04:18.829Z,99155.11
2023-04-27T04:06:46.787Z,99157.48
2023-04-27T04:09:15.503Z,99161.82
2023-04-27T04:11:44.322Z,99156.30
2023-04-27T04:14:14.830Z,99161.48
2023-04-27T04:16:42.593Z,99162.85
2023-04-27T04:19:10.940Z,99161.39
2023-04-27T04:21:38.674Z,99160.21
2023-04-27T04:24:07.510Z,99162.42
2023-04-27T04:26:35.650Z,99161.45
2023-04-27T04:29:04.221Z,99168.09
2023-04-27T04:31:33.812Z,99170.39
2023-04-27T04:34:02.073Z,99171.05
2023-04-27T04:36:30.871Z,99173.89
2023-04-27T04:38:58.721Z,99173.91
2023-04-27T04:41:26.854Z,99175.02
2023-04-27T04:43:54.508Z,99175.73
2023-04-27T04:46:24.784Z,99178.37
2023-04-27T04:48:54.581Z,99182.66
2023-04-27T04:51:23.267Z,99182.09
2023-04-27T04:53:51.241Z,99181.33
2023-04-27T04:56:18.827Z,99185.63
2023-04-27T04:58:46.488Z,99190.85
2023-04-27T05:01:14.182Z,99192.44
2023-04-27T05:03:43.068Z,99192.38
2023-04-27T05:06:10.744Z,99196.76
2023-04-27T05:08:38.961Z,99197.97
2023-04-27T05:11:06.708Z,99195.69
2023-04-27T05:13:35.590Z,99203.29
2023-04-27T05:16:07.304Z,99204.69
2023-04-27T05:18:36.091Z,99199.06
2023-04-27T05:21:03.833Z,99202.69
2023-04-27T05:23:31.490Z,99206.15
2023-04-27T05:25:59.129Z,99203.44
2023-04-27T05:28:26.748Z,99207.13
2023-04-27T05:30:54.387Z,99213.31
2023-04-27T05:33:22.344Z,99212.08
2023-04-27T05:35:49.951Z,99214.06
2023-04-27T05:38:17.618Z,99211.89
2023-04-27T05:40:45.264Z,99217.17
2023-04-27T05:43:12.940Z,99218.34
2023-04-27T05:45:41.218Z,99216.89
2023-04-27T05:48:08.947Z,99220.55
2023-04-27T05:50:36.665Z,99216.84
2023-04-27T05:53:05.597Z,99217.05
2023-04-27T05:55:33.490Z,99224.20
2023-04-27T05:58:08.437Z,99227.25
2023-04-27T06:00:36.889Z,99227.40
2023-04-27T06:03:04.624Z,99227.34
2023-04-27T06:05:34.372Z,99235.31
2023-04-27T06:08:02.109Z,99238.32
2023-04-27T06:10:30.007Z,99234.23
2023-04-27T06:12:57.596Z,99238.90
2023-04-27T06:15:25.445Z,99236.51
2023-04-27T06:17:53.099Z,99237.95
2023-04-27T06:20:20.986Z,99237.39
2023-04-27T06:22:48.655Z,99235.84
2023-04-27T06:25:16.420Z,99237.59
2023-04-27T06:27:44.108Z,99233.59
2023-04-27T06:30:12.569Z,99234.18
2023-04-27T06:32:40.197Z,99237.13
2023-04-27T06:35:08.571Z,99237.87
2023-04-27T06:37:36.276Z,99234.64
2023-04-27T06:40:04.768Z,99241.93
2023-04-27T06:42:32.425Z,99242.95
2023-04-27T06:45:00.125Z,99244.86
2023-04-27T06:47:27.735Z,99245.44
2023-04-27T06:49:55.344Z,99242.59
2023-04-27T06:52:23.134Z,99242.46
2023-04-27T06:54:50.859Z,99241.17
2023-04-27T06:57:18.467Z,99243.36
2023-04-27T06:59:46.104Z,99245.95
2023-04-27T07:02:13.749Z,99240.89
2023-04-27T07:04:41.692Z,99241.23
2023-04-27T07:07:09.520Z,99246.73
2023-04-27T07:09:37.574Z,99250.17
2023-04-27T07:12:05.344Z,99254.77
2023-04-27T07:14:33.871Z,99252.12
2023-04-27T07:17:01.574Z,99258.19
2023-04-27T07:19:29.318Z,99262.75
2023-04-27T07:21:57.123Z,99265.86
2023-04-27T07:24:24.804Z,99263.69
2023-04-27T07:26:52.565Z,99265.73
2023-04-27T07:29:27.018Z,99270.31
2023-04-27T07:31:55.998Z,99272.18
2023-04-27T07:34:24.316Z,99271.08
2023-04-27T07:36:54.514Z,99272.04
2023-04-27T07:39:22.652Z,99273.16
2023-04-27T07:41:50.360Z,99278.40
2023-04-27T07:44:18.941Z,99280.86
2023-04-27T07:46:48.944Z,99285.08
2023-04-27T07:49:16.933Z,99283.67
2023-04-27T07:51:44.588Z,99283.09
2023-04-27T07:54:12.323Z,99283.53
2023-04-27T07:56:43.359Z,99287.79
2023-04-27T07:59:11.917Z,99279.31
2023-04-27T08:01:39.988Z,99277.23
2023-04-27T08:04:07.878Z,99282.75
2023-04-27T08:06:36.272Z,99280.30
2023-04-27T08:09:05.294Z,99281.13
2023-04-27T08:11:33.155Z,99289.54
2023-04-27T08:14:01.166Z,99284.98
2023-04-27T08:16:28.820Z,99282.48
2023-04-27T08:18:57.543Z,99275.88
2023-04-27T08:21:28.335Z,99282.04
2023-04-27T08:23:56.605Z,99281.22
2023-04-27T08:26:26.320Z,99278.42
2023-04-27T08:28:54.530Z,99278.05
2023-04-27T08:31:22.779Z,99283.19
2023-04-27T08:33:51.326Z,99278.67
2023-04-27T08:36:20.846Z,99274.94
2023-04-27T08:38:48.744Z,99284.59
2023-04-27T08:41:22.227Z,99284.26
2023-04-27T08:43:51.352Z,99275.20
2023-04-27T08:46:23.901Z,99284.52
2023-04-27T08:48:53.134Z,99285.85
2023-04-27T08:51:21.371Z,99280.98
2023-04-27T08:53:51.579Z,99282.31
2023-04-27T08:56:20.627Z,99280.86
2023-04-27T08:58:48.227Z,99289.13
2023-04-27T09:01:16.202Z,99284.98
2023-04-27T09:03:46.780Z,99284.38
2023-04-27T09:06:15.294Z,99285.24
2023-04-27T09:08:50.223Z,99280.61
2023-04-27T09:11:35.384Z,99276.05
2023-04-27T09:14:16.447Z,99277.38
2023-04-27T09:16:44.786Z,99274.13
2023-04-27T09:19:27.318Z,99273.36
2023-04-27T09:22:11.197Z,99281.89
2023-04-27T09:24:39.168Z,99286.36
2023-04-27T09:27:07.353Z,99283.55
2023-04-27T09:29:37.410Z,99282.81
2023-04-27T09:32:17.243Z,99283.02
2023-04-27T09:34:45.422Z,99284.52
2023-04-27T09:37:14.272Z,99285.31
2023-04-27T09:39:42.255Z,99284.41
2023-04-27T09:42:12.164Z,99287.30
2023-04-27T09:44:39.832Z,99285.48
2023-04-27T09:47:07.835Z,99284.88
2023-04-27T09:49:36.150Z,99282.75
2023-04-27T09:52:04.186Z,99283.42
2023-04-27T09:54:33.608Z,99287.05
2023-04-27T09:57:22.056Z,99289.02
2023-04-27T09:59:52.530Z,99294.68
2023-04-27T10:02:25.220Z,99293.45
2023-04-27T10:05:17.341Z,99292.49
2023-04-27T10:07:45.357Z,99294.46
2023-04-27T10:10:18.569Z,99293.14
2023-04-27T10:12:57.244Z,99296.33
2023-04-27T10:15:29.079Z,99294.88
2023-04-27T10:17:59.292Z,99295.74
2023-04-27T10:20:36.068Z,99296.13
2023-04-27T10:23:04.114Z,99293.67
2023-04-27T10:25:42.758Z,99300.69
2023-04-27T10:28:16.256Z,99295.52
2023-04-27T10:30:49.472Z,99297.13
2023-04-27T10:33:22.944Z,99296.83
2023-04-27T10:35:56.164Z,99296.00
2023-04-27T10:38:29.663Z,99301.61
2023-04-27T10:41:02.287Z,99302.58
2023-04-27T10:43:31.810Z,99302.84
2023-04-27T10:46:15.853Z,99300.70
2023-04-27T10:48:44.728Z,99304.67
2023-04-27T10:51:16.610Z,99303.09
2023-04-27T10:53:44.540Z,99301.48
2023-04-27T10:56:12.363Z,99299.77
2023-04-27T10:58:48.778Z,99300.36
2023-04-27T11:01:25.003Z,99304.02
2023-04-27T11:03:57.216Z,99305.73
2023-04-27T11:06:24.880Z,99300.98
2023-04-27T11:08:52.491Z,99308.91
2023-04-27T11:11:20.603Z,99308.05
2023-04-27T11:13:49.455Z,99308.71
2023-04-27T11:16:17.132Z,99305.30
2023-04-27T11:18:44.872Z,99304.48
2023-04-27T11:21:16.956Z,99306.13
2023-04-27T11:23:44.588Z,99306.34
2023-04-27T11:26:19.232Z,99312.77
2023-04-27T11:29:00.031Z,99313.34
2023-04-27T11:31:49.184Z,99315.40
2023-04-27T11:34:23.681Z,99315.28
2023-04-27T11:37:17.215Z,99312.04
2023-04-27T11:39:45.955Z,99316.95
2023-04-27T11:42:28.428Z,99314.01
2023-04-27T11:44:57.961Z,99312.89
2023-04-27T11:47:29.999Z,99314.88
2023-04-27T11:49:59.823Z,99314.91
2023-04-27T11:52:40.072Z,99314.01
2023-04-27T11:55:10.741Z,99309.12
2023-04-27T11:57:38.831Z,99305.05
2023-04-27T12:00:10.898Z,99303.89
2023-04-27T12:02:42.985Z,99310.05
2023-04-27T12:05:13.123Z,99313.02
2023-04-27T12:07:41.783Z,99308.33
2023-04-27T12:10:09.691Z,99306.98
2023-04-27T12:12:37.493Z,99305.00
2023-04-27T12:15:06.993Z,99308.37
2023-04-27T12:17:34.623Z,99313.00
2023-04-27T12:20:02.221Z,99310.33
2023-04-27T12:22:29.847Z,99313.30
2023-04-27T12:24:57.682Z,99316.63
2023-04-27T12:27:26.479Z,99321.97
2023-04-27T12:29:54.424Z,99324.52
2023-04-27T12:32:22.607Z,99328.45
2023-04-27T12:34:50.198Z,99329.14
2023-04-27T12:37:17.789Z,99326.73
2023-04-27T12:39:45.603Z,99329.10
2023-04-27T12:42:13.273Z,99329.27
2023-04-27T12:44:41.363Z,99333.91
2023-04-27T12:47:09.275Z,99333.73
2023-04-27T12:49:37.937Z,99335.42
2023-04-27T12:52:05.540Z,99336.08
2023-04-27T12:54:33.278Z,99342.60
2023-04-27T12:57:03.886Z,99340.25
2023-04-27T12:59:34.761Z,99347.27
2023-04-27T13:02:03.367Z,99345.20
2023-04-27T13:04:32.194Z,99345.69
2023-04-27T13:07:01.025Z,99343.92
2023-04-27T13:09:29.098Z,99344.83
2023-04-27T13:12:00.747Z,99342.42
2023-04-27T13:14:29.400Z,99343.53
2023-04-27T13:16:56.986Z,99341.03
2023-04-27T13:19:25.247Z,99341.08
2023-04-27T13:21:53.388Z,99341.55
2023-04-27T13:24:22.132Z,99342.39
2023-04-27T13:26:49.754Z,99342.30
2023-04-27T13:29:17.856Z,99342.45
2023-04-27T13:31:45.517Z,99341.23
2023-04-27T13:34:13.453Z,99341.31
2023-04-27T13:36:41.260Z,99341.30
2023-04-27T13:39:08.882Z,99342.58
2023-04-27T13:41:36.492Z,99336.81
2023-04-27T13:44:04.367Z,99338.30
2023-04-27T13:46:31.972Z,99336.89
2023-04-27T13:48:59.667Z,99339.93
2023-04-27T13:51:29.729Z,99334.04
2023-04-27T13:53:57.357Z,99332.56
2023-04-27T13:56:25.154Z,99328.92
2023-04-27T13:58:53.064Z,99328.95
2023-04-27T14:01:20.800Z,99336.86
2023-04-27T14:03:48.674Z,99329.86
2023-04-27T14:06:16.540Z,99329.43
2023-04-27T14:08:44.303Z,99329.38
2023-04-27T14:11:13.192Z,99328.13
2023-04-27T14:13:40.980Z,99333.48
2023-04-27T14:16:08.623Z,99336.23
2023-04-27T14:18:36.399Z,99337.89
2023-04-27T14:21:04.516Z,99340.68
2023-04-27T14:23:32.137Z,99348.48
2023-04-27T14:25:59.804Z,99352.27
2023-04-27T14:28:27.557Z,99353.98
2023-04-27T14:30:55.373Z,99355.38
2023-04-27T14:33:22.974Z,99362.34
2023-04-27T14:35:50.649Z,99365.36
2023-04-27T14:38:18.261Z,99367.95
2023-04-27T14:40:46.034Z,99373.18
2023-04-27T14:43:14.205Z,99368.66
2023-04-27T14:45:51.672Z,99376.77
2023-04-27T14:48:23.444Z,99374.08
2023-04-27T14:50:51.315Z,99372.79
2023-04-27T14:53:18.944Z,99374.44
2023-04-27T14:55:46.791Z,99375.08
2023-04-27T14:58:15.448Z,99374.09
2023-04-27T15:00:43.473Z,99375.52
2023-04-27T15:03:11.335Z,99372.51
2023-04-27T15:05:39.249Z,99373.26
2023-04-27T15:08:06.840Z,99371.79
2023-04-27T15:10:34.449Z,99372.34
2023-04-27T15:13:02.532Z,99370.75
2023-04-27T15:15:30.271Z,99372.75
2023-04-27T15:17:58.640Z,99373.66
2023-04-27T15:20:26.919Z,99376.33
2023-04-27T15:22:54.550Z,99378.09
2023-04-27T15:25:22.254Z,99381.29
2023-04-27T15:27:49.880Z,99380.59
2023-04-27T15:30:17.498Z,99378.22
2023-04-27T15:32:45.259Z,99380.89
2023-04-27T15:35:12.870Z,99381.40
2023-04-27T15:37:40.972Z,99383.37
2023-04-27T15:40:09.963Z,99382.04
2023-04-27T15:42:37.742Z,99379.49
2023-04-27T15:45:08.000Z,99375.31
2023-04-27T15:47:37.003Z,99375.64
2023-04-27T15:50:05.389Z,99373.41
2023-04-27T15:52:33.836Z,99371.70
2023-04-27T15:55:01.553Z,99373.33
2023-04-27T15:57:29.317Z,99374.59
2023-04-27T15:59:56.923Z,99372.73
2023-04-27T16:02:24.635Z,99371.05
2023-04-27T16:04:55.933Z,99369.95
2023-04-27T16:07:23.559Z,99372.25
2023-04-27T16:09:51.283Z,99374.21
2023-04-27T16:12:18.964Z,99376.73
2023-04-27T16:14:46.685Z,99380.48
2023-04-27T16:17:14.369Z,99380.49
2023-04-27T16:19:41.986Z,99381.04
2023-04-27T16:22:09.590Z,99383.84
2023-04-27T16:24:37.190Z,99382.66
2023-04-27T16:27:04.791Z,99384.80
2023-04-27T16:29:32.427Z,99385.32
2023-04-27T16:32:00.380Z,99384.30
2023-04-27T16:34:28.072Z,99386.84
2023-04-27T16:36:55.794Z,99386.36
2023-04-27T16:39:23.966Z,99384.95
2023-04-27T16:41:51.743Z,99382.52
2023-04-27T16:44:19.522Z,99379.48
2023-04-27T16:46:47.581Z,99378.17
2023-04-27T16:49:15.536Z,99376.45
2023-04-27T16:51:43.346Z,99379.23
2023-04-27T16:54:10.992Z,99382.11
2023-04-27T16:56:38.774Z,99381.94
2023-04-27T16:59:06.650Z,99382.23
2023-04-27T17:01:34.247Z,99383.90
2023-04-27T17:04:02.334Z,99378.64
2023-04-27T17:06:30.419Z,99383.07
2023-04-27T17:08:58.495Z,99387.10
2023-04-27T17:11:26.628Z,99392.30
2023-04-27T17:13:54.483Z,99395.36
2023-04-27T17:16:22.296Z,99391.30
2023-04-27T17:18:50.074Z,99391.05
2023-04-27T17:21:18.191Z,99392.41
2023-04-27T17:23:46.680Z,99394.86
2023-04-27T17:26:16.028Z,99394.07
2023-04-27T17:28:43.667Z,99397.02
2023-04-27T17:31:11.443Z,99396.65
2023-04-27T17:33:43.574Z,99397.91
2023-04-27T17:36:11.666Z,99400.45
2023-04-27T17:38:39.345Z,99398.33
2023-04-27T17:41:06.941Z,99400.70
2023-04-27T17:43:34.710Z,99402.45
2023-04-27T17:46:06.810Z,99405.46
2023-04-27T17:48:34.585Z,99405.88
2023-04-27T17:51:02.316Z,99405.55
2023-04-27T17:53:29.972Z,99409.30
2023-04-27T17:55:57.618Z,99412.69
2023-04-27T17:58:25.666Z,99415.55
2023-04-27T18:00:53.314Z,99413.11
2023-04-27T18:03:22.094Z,99416.20
2023-04-27T18:05:50.108Z,99416.59
2023-04-27T18:08:17.732Z,99418.41
2023-04-27T18:10:45.534Z,99420.41
2023-04-27T18:13:13.455Z,99425.58
2023-04-27T18:15:41.396Z,99425.52
2023-04-27T18:18:09.634Z,99429.88
2023-04-27T18:20:37.537Z,99431.44
2023-04-27T18:23:05.138Z,99429.37
2023-04-27T18:25:32.734Z,99431.65
2023-04-27T18:28:00.380Z,99433.64
2023-04-27T18:30:28.523Z,99432.20
2023-04-27T18:32:56.757Z,99430.31
2023-04-27T18:35:24.568Z,99433.70
2023-04-27T18:37:52.137Z,99433.52
2023-04-27T18:40:21.259Z,99436.23
2023-04-27T18:42:50.020Z,99435.36
2023-04-27T18:45:17.659Z,99437.81
2023-04-27T18:47:45.344Z,99439.34
2023-04-27T18:50:15.755Z,99438.31
2023-04-27T18:52:43.596Z,99439.95
2023-04-27T18:55:11.703Z,99439.98
2023-04-27T18:57:39.784Z,99445.49
2023-04-27T19:00:08.984Z,99448.41
2023-04-27T19:02:36.710Z,99449.21
2023-04-27T19:05:12.466Z,99446.54
2023-04-27T19:07:41.542Z,99451.61
2023-04-27T19:10:09.827Z,99449.39
2023-04-27T19:12:37.644Z,99446.04
2023-04-27T19:15:07.238Z,99445.94
2023-04-27T19:17:35.560Z,99446.60
2023-04-27T19:20:04.341Z,99444.89
2023-04-27T19:22:34.381Z,99447.09
2023-04-27T19:25:03.410Z,99451.11
2023-04-27T19:27:31.147Z,99449.48
2023-04-27T19:29:58.789Z,99447.11
2023-04-27T19:32:27.214Z,99450.57
2023-04-27T19:34:56.237Z,99454.96
2023-04-27T19:37:24.752Z,99453.86
2023-04-27T19:39:52.433Z,99453.64
2023-04-27T19:42:20.027Z,99456.70
2023-04-27T19:44:47.653Z,99454.73
2023-04-27T19:47:15.350Z,99458.06
2023-04-27T19:49:43.037Z,99458.59
2023-04-27T19:52:10.733Z,99462.35
2023-04-27T19:54:38.509Z,99460.75
2023-04-27T19:57:06.378Z,99462.73
2023-04-27T19:59:34.167Z,99464.27
2023-04-27T20:02:01.932Z,99466.66
2023-04-27T20:04:30.254Z,99466.31
2023-04-27T20:06:58.475Z,99467.72
2023-04-27T20:09:26.135Z,99467.41
2023-04-27T20:11:55.050Z,99472.55
2023-04-27T20:14:23.077Z,99471.00
2023-04-27T20:16:51.007Z,99467.33
2023-04-27T20:19:19.378Z,99465.29
2023-04-27T20:21:46.963Z,99466.14
2023-04-27T20:24:14.971Z,99470.70
2023-04-27T20:26:42.798Z,99468.65
2023-04-27T20:29:10.552Z,99468.20
2023-04-27T20:31:38.395Z,99468.67
2023-04-27T20:34:06.202Z,99467.20
2023-04-27T20:36:33.811Z,99465.59
2023-04-27T20:39:01.554Z,99470.27
2023-04-27T20:41:29.170Z,99468.70
2023-04-27T20:43:56.971Z,99466.96
2023-04-27T20:46:24.561Z,99469.30
2023-04-27T20:48:52.260Z,99469.62
2023-04-27T20:51:19.992Z,99469.15
2023-04-27T20:53:47.604Z,99471.02
2023-04-27T20:56:15.221Z,99473.30
2023-04-27T20:58:42.825Z,99474.87
2023-04-27T21:01:10.490Z,99474.91
2023-04-27T21:03:38.412Z,99475.53
2023-04-27T21:06:06.271Z,99476.45
2023-04-27T21:08:34.774Z,99478.43
2023-04-27T21:11:02.403Z,99476.80
2023-04-27T21:13:30.494Z,99480.38
2023-04-27T21:15:58.083Z,99480.77
2023-04-27T21:18:30.154Z,99481.88
2023-04-27T21:20:58.643Z,99479.77
2023-04-27T21:23:26.277Z,99480.82
2023-04-27T21:25:53.905Z,99483.09
2023-04-27T21:28:21.570Z,99484.95
2023-04-27T21:30:49.215Z,99483.89
2023-04-27T21:33:17.018Z,99483.16
2023-04-27T21:35:44.923Z,99484.64
2023-04-27T21:38:12.533Z,99482.41
2023-04-27T21:40:40.719Z,99484.36
2023-04-27T21:43:08.941Z,99481.83
2023-04-27T21:45:37.836Z,99485.23
2023-04-27T21:48:05.813Z,99487.34
2023-04-27T21:50:33.493Z,99486.89
2023-04-27T21:53:01.161Z,99487.43
2023-04-27T21:55:28.774Z,99492.73
2023-04-27T21:57:56.453Z,99496.85
2023-04-27T22:00:24.138Z,99496.98
2023-04-27T22:02:51.949Z,99499.18
2023-04-27T22:05:21.039Z,99492.30
2023-04-27T22:07:48.857Z,99493.27
2023-04-27T22:10:16.452Z,99494.78
2023-04-27T22:12:44.200Z,99493.11
2023-04-27T22:15:11.840Z,99490.55
2023-04-27T22:17:40.575Z,99490.15
2023-04-27T22:20:12.788Z,99496.48
2023-04-27T22:22:41.028Z,99493.82
2023-04-27T22:25:10.658Z,99492.94
2023-04-27T22:27:44.610Z,99491.58
2023-04-27T22:30:14.219Z,99492.79
2023-04-27T22:32:42.392Z,99493.88
2023-04-27T22:35:24.681Z,99495.11
2023-04-27T22:37:55.752Z,99496.02
2023-04-27T22:40:23.537Z,99494.04
2023-04-27T22:42:51.914Z,99494.66
2023-04-27T22:45:19.581Z,99492.84
2023-04-27T22:47:47.288Z,99498.47
2023-04-27T22:50:15.529Z,99495.23
2023-04-27T22:52:43.193Z,99490.78
2023-04-27T22:55:12.194Z,99489.05
2023-04-27T22:57:40.869Z,99489.38
2023-04-27T23:00:11.143Z,99488.33
2023-04-27T23:02:40.303Z,99490.09
2023-04-27T23:05:09.265Z,99490.35
2023-04-27T23:07:37.166Z,99489.05
2023-04-27T23:10:05.773Z,99484.73
2023-04-27T23:12:33.596Z,99486.02
2023-04-27T23:15:01.395Z,99490.36
2023-04-27T23:17:32.083Z,99493.58
2023-04-27T23:20:01.547Z,99489.11
2023-04-27T23:22:29.263Z,99487.86
2023-04-27T23:24:56.887Z,99487.08
2023-04-27T23:27:25.015Z,99492.92
2023-04-27T23:29:52.996Z,99490.21
2023-04-27T23:32:20.863Z,99489.88
2023-04-27T23:34:48.857Z,99492.77
2023-04-27T23:37:17.259Z,99491.27
2023-04-27T23:39:45.522Z,99490.67
2023-04-27T23:42:13.102Z,99491.63
2023-04-27T23:44:40.719Z,99492.02
2023-04-27T23:47:08.754Z,99488.00
2023-04-27T23:49:36.409Z,99484.89
2023-04-27T23:52:04.983Z,99486.67
2023-04-27T23:54:32.766Z,99486.47
2023-04-27T23:57:00.558Z,99489.77
2023-04-27T23:59:28.215Z,99485.15
